sensor_id;sensor_type;location;lat;lon;timestamp;temperature;humidity
24450;DHT22;13349;50.984;5.822;2023-07-20T00:01:09;16.70;99.90
24450;DHT22;13349;50.984;5.822;2023-07-20T00:03:36;16.60;99.90
24450;DHT22;13349;50.984;5.822;2023-07-20T00:06:03;16.60;99.90
24450;DHT22;13349;50.984;5.822;2023-07-20T00:08:30;16.50;99.90
24450;DHT22;13349;50.984;5.822;2023-07-20T00:10:57;16.40;99.90
24450;DHT22;13349;50.984;5.822;2023-07-20T00:13:26;16.30;99.90
24450;DHT22;13349;50.984;5.822;2023-07-20T00:15:53;16.20;99.90
24450;DHT22;13349;50.984;5.822;2023-07-20T00:18:20;16.00;99.90
24450;DHT22;13349;50.984;5.822;2023-07-20T00:20:48;16.00;99.90
24450;DHT22;13349;50.984;5.822;2023-07-20T00:23:16;15.90;99.90
24450;DHT22;13349;50.984;5.822;2023-07-20T00:25:48;15.90;99.90
24450;DHT22;13349;50.984;5.822;2023-07-20T00:28:15;15.90;99.90
24450;DHT22;13349;50.984;5.822;2023-07-20T00:30:43;15.90;99.90
24450;DHT22;13349;50.984;5.822;2023-07-20T00:33:10;15.90;99.90
24450;DHT22;13349;50.984;5.822;2023-07-20T00:35:37;15.90;99.90
24450;DHT22;13349;50.984;5.822;2023-07-20T00:38:05;15.80;99.90
24450;DHT22;13349;50.984;5.822;2023-07-20T00:40:35;15.90;99.90
24450;DHT22;13349;50.984;5.822;2023-07-20T00:43:02;15.90;99.90
24450;DHT22;13349;50.984;5.822;2023-07-20T00:45:29;15.90;99.90
24450;DHT22;13349;50.984;5.822;2023-07-20T00:47:58;15.90;99.90
24450;DHT22;13349;50.984;5.822;2023-07-20T00:50:26;16.00;99.90
24450;DHT22;13349;50.984;5.822;2023-07-20T00:52:54;16.00;99.90
24450;DHT22;13349;50.984;5.822;2023-07-20T00:55:22;16.00;99.90
24450;DHT22;13349;50.984;5.822;2023-07-20T00:57:50;16.00;99.90
24450;DHT22;13349;50.984;5.822;2023-07-20T01:00:17;16.00;99.90
24450;DHT22;13349;50.984;5.822;2023-07-20T01:02:44;15.90;99.90
24450;DHT22;13349;50.984;5.822;2023-07-20T01:05:13;16.00;99.90
24450;DHT22;13349;50.984;5.822;2023-07-20T01:07:43;15.90;99.90
24450;DHT22;13349;50.984;5.822;2023-07-20T01:10:15;15.90;99.90
24450;DHT22;13349;50.984;5.822;2023-07-20T01:12:46;15.90;99.90
24450;DHT22;13349;50.984;5.822;2023-07-20T01:15:14;15.90;99.90
24450;DHT22;13349;50.984;5.822;2023-07-20T01:17:41;15.90;99.90
24450;DHT22;13349;50.984;5.822;2023-07-20T01:20:10;15.90;99.90
24450;DHT22;13349;50.984;5.822;2023-07-20T01:22:50;16.00;99.90
24450;DHT22;13349;50.984;5.822;2023-07-20T01:25:24;16.00;99.90
24450;DHT22;13349;50.984;5.822;2023-07-20T01:28:04;16.10;99.90
24450;DHT22;13349;50.984;5.822;2023-07-20T01:30:39;16.10;99.90
24450;DHT22;13349;50.984;5.822;2023-07-20T01:33:13;16.10;99.90
24450;DHT22;13349;50.984;5.822;2023-07-20T01:35:42;16.00;99.90
24450;DHT22;13349;50.984;5.822;2023-07-20T01:38:10;16.10;99.90
24450;DHT22;13349;50.984;5.822;2023-07-20T01:40:38;16.00;99.90
24450;DHT22;13349;50.984;5.822;2023-07-20T01:43:05;15.90;99.90
24450;DHT22;13349;50.984;5.822;2023-07-20T01:45:32;15.90;99.90
24450;DHT22;13349;50.984;5.822;2023-07-20T01:47:59;15.90;99.90
24450;DHT22;13349;50.984;5.822;2023-07-20T01:50:27;15.90;99.90
24450;DHT22;13349;50.984;5.822;2023-07-20T01:52:54;16.00;99.90
24450;DHT22;13349;50.984;5.822;2023-07-20T01:55:22;16.00;99.90
24450;DHT22;13349;50.984;5.822;2023-07-20T01:57:48;16.00;99.90
24450;DHT22;13349;50.984;5.822;2023-07-20T02:00:16;16.00;99.90
24450;DHT22;13349;50.984;5.822;2023-07-20T02:02:44;16.00;99.90
24450;DHT22;13349;50.984;5.822;2023-07-20T02:05:11;16.00;99.90
24450;DHT22;13349;50.984;5.822;2023-07-20T02:07:39;16.00;99.90
24450;DHT22;13349;50.984;5.822;2023-07-20T02:10:07;16.00;99.90
24450;DHT22;13349;50.984;5.822;2023-07-20T02:12:34;15.90;99.90
24450;DHT22;13349;50.984;5.822;2023-07-20T02:15:01;15.90;99.90
24450;DHT22;13349;50.984;5.822;2023-07-20T02:17:28;15.90;99.90
24450;DHT22;13349;50.984;5.822;2023-07-20T02:19:55;15.80;99.90
24450;DHT22;13349;50.984;5.822;2023-07-20T02:22:22;15.70;99.90
24450;DHT22;13349;50.984;5.822;2023-07-20T02:24:51;15.70;99.90
24450;DHT22;13349;50.984;5.822;2023-07-20T02:27:18;15.60;99.90
24450;DHT22;13349;50.984;5.822;2023-07-20T02:29:45;15.50;99.90
24450;DHT22;13349;50.984;5.822;2023-07-20T02:32:12;15.40;99.90
24450;DHT22;13349;50.984;5.822;2023-07-20T02:34:39;15.30;99.90
24450;DHT22;13349;50.984;5.822;2023-07-20T02:37:06;15.30;99.90
24450;DHT22;13349;50.984;5.822;2023-07-20T02:39:33;15.30;99.90
24450;DHT22;13349;50.984;5.822;2023-07-20T02:42:02;15.20;99.90
24450;DHT22;13349;50.984;5.822;2023-07-20T02:44:28;15.10;99.90
24450;DHT22;13349;50.984;5.822;2023-07-20T02:46:55;15.10;99.90
24450;DHT22;13349;50.984;5.822;2023-07-20T02:49:22;15.10;99.90
24450;DHT22;13349;50.984;5.822;2023-07-20T02:51:49;15.10;99.90
24450;DHT22;13349;50.984;5.822;2023-07-20T02:54:16;15.10;99.90
24450;DHT22;13349;50.984;5.822;2023-07-20T02:56:43;15.10;99.90
24450;DHT22;13349;50.984;5.822;2023-07-20T02:59:12;15.10;99.90
24450;DHT22;13349;50.984;5.822;2023-07-20T03:01:39;15.20;99.90
24450;DHT22;13349;50.984;5.822;2023-07-20T03:04:08;15.30;99.90
24450;DHT22;13349;50.984;5.822;2023-07-20T03:06:35;15.40;99.90
24450;DHT22;13349;50.984;5.822;2023-07-20T03:09:02;15.40;99.90
24450;DHT22;13349;50.984;5.822;2023-07-20T03:11:30;15.40;99.90
24450;DHT22;13349;50.984;5.822;2023-07-20T03:13:57;15.40;99.90
24450;DHT22;13349;50.984;5.822;2023-07-20T03:16:25;15.40;99.90
24450;DHT22;13349;50.984;5.822;2023-07-20T03:18:52;15.50;99.90
24450;DHT22;13349;50.984;5.822;2023-07-20T03:21:19;15.40;99.90
24450;DHT22;13349;50.984;5.822;2023-07-20T03:23:46;15.30;99.90
24450;DHT22;13349;50.984;5.822;2023-07-20T03:26:13;15.20;99.90
24450;DHT22;13349;50.984;5.822;2023-07-20T03:28:40;15.20;99.90
24450;DHT22;13349;50.984;5.822;2023-07-20T03:31:07;15.30;99.90
24450;DHT22;13349;50.984;5.822;2023-07-20T03:33:36;15.30;99.90
24450;DHT22;13349;50.984;5.822;2023-07-20T03:36:03;15.30;99.90
24450;DHT22;13349;50.984;5.822;2023-07-20T03:38:30;15.40;99.90
24450;DHT22;13349;50.984;5.822;2023-07-20T03:40:59;15.40;99.90
24450;DHT22;13349;50.984;5.822;2023-07-20T03:43:26;15.40;99.90
24450;DHT22;13349;50.984;5.822;2023-07-20T03:45:53;15.40;99.90
24450;DHT22;13349;50.984;5.822;2023-07-20T03:48:22;15.40;99.90
24450;DHT22;13349;50.984;5.822;2023-07-20T03:50:51;15.50;99.90
24450;DHT22;13349;50.984;5.822;2023-07-20T03:53:19;15.50;99.90
24450;DHT22;13349;50.984;5.822;2023-07-20T03:55:46;15.50;99.90
24450;DHT22;13349;50.984;5.822;2023-07-20T03:58:13;15.50;99.90
24450;DHT22;13349;50.984;5.822;2023-07-20T04:00:43;15.50;99.90
24450;DHT22;13349;50.984;5.822;2023-07-20T04:03:10;15.50;99.90
24450;DHT22;13349;50.984;5.822;2023-07-20T04:05:37;15.50;99.90
24450;DHT22;13349;50.984;5.822;2023-07-20T04:08:05;15.50;99.90
24450;DHT22;13349;50.984;5.822;2023-07-20T04:10:32;15.50;99.90
24450;DHT22;13349;50.984;5.822;2023-07-20T04:13:00;15.50;99.90
24450;DHT22;13349;50.984;5.822;2023-07-20T04:15:27;15.50;99.90
24450;DHT22;13349;50.984;5.822;2023-07-20T04:17:54;15.50;99.90
24450;DHT22;13349;50.984;5.822;2023-07-20T04:20:21;15.60;99.90
24450;DHT22;13349;50.984;5.822;2023-07-20T04:22:49;15.60;99.90
24450;DHT22;13349;50.984;5.822;2023-07-20T04:25:17;15.60;99.90
24450;DHT22;13349;50.984;5.822;2023-07-20T04:27:44;15.50;99.90
24450;DHT22;13349;50.984;5.822;2023-07-20T04:30:11;15.50;99.90
24450;DHT22;13349;50.984;5.822;2023-07-20T04:32:38;15.60;99.90
24450;DHT22;13349;50.984;5.822;2023-07-20T04:35:16;15.60;99.90
24450;DHT22;13349;50.984;5.822;2023-07-20T04:37:43;15.60;99.90
24450;DHT22;13349;50.984;5.822;2023-07-20T04:40:11;15.60;99.90
24450;DHT22;13349;50.984;5.822;2023-07-20T04:42:40;15.70;99.90
24450;DHT22;13349;50.984;5.822;2023-07-20T04:45:07;15.70;99.90
24450;DHT22;13349;50.984;5.822;2023-07-20T04:47:34;15.70;99.90
24450;DHT22;13349;50.984;5.822;2023-07-20T04:50:01;15.70;99.90
24450;DHT22;13349;50.984;5.822;2023-07-20T04:52:29;15.70;99.90
24450;DHT22;13349;50.984;5.822;2023-07-20T04:54:56;15.80;99.90
24450;DHT22;13349;50.984;5.822;2023-07-20T04:57:23;15.80;99.90
24450;DHT22;13349;50.984;5.822;2023-07-20T04:59:52;15.90;99.90
24450;DHT22;13349;50.984;5.822;2023-07-20T05:02:19;16.10;99.90
24450;DHT22;13349;50.984;5.822;2023-07-20T05:04:46;16.20;99.90
24450;DHT22;13349;50.984;5.822;2023-07-20T05:07:13;16.20;99.90
24450;DHT22;13349;50.984;5.822;2023-07-20T05:09:40;16.10;99.90
24450;DHT22;13349;50.984;5.822;2023-07-20T05:12:08;16.00;99.90
24450;DHT22;13349;50.984;5.822;2023-07-20T05:14:35;16.00;99.90
24450;DHT22;13349;50.984;5.822;2023-07-20T05:17:03;15.90;99.90
24450;DHT22;13349;50.984;5.822;2023-07-20T05:19:30;16.00;99.90
24450;DHT22;13349;50.984;5.822;2023-07-20T05:21:57;16.00;99.90
24450;DHT22;13349;50.984;5.822;2023-07-20T05:24:24;16.00;99.90
24450;DHT22;13349;50.984;5.822;2023-07-20T05:26:51;16.00;99.90
24450;DHT22;13349;50.984;5.822;2023-07-20T05:29:19;16.10;99.90
24450;DHT22;13349;50.984;5.822;2023-07-20T05:31:46;16.00;99.90
24450;DHT22;13349;50.984;5.822;2023-07-20T05:34:15;16.00;99.90
24450;DHT22;13349;50.984;5.822;2023-07-20T05:36:42;16.10;99.90
24450;DHT22;13349;50.984;5.822;2023-07-20T05:39:09;16.10;99.90
24450;DHT22;13349;50.984;5.822;2023-07-20T05:41:36;16.10;99.90
24450;DHT22;13349;50.984;5.822;2023-07-20T05:44:03;16.10;99.90
24450;DHT22;13349;50.984;5.822;2023-07-20T05:46:30;16.30;99.90
24450;DHT22;13349;50.984;5.822;2023-07-20T05:48:56;16.30;99.90
24450;DHT22;13349;50.984;5.822;2023-07-20T05:51:25;16.30;99.90
24450;DHT22;13349;50.984;5.822;2023-07-20T05:53:52;16.20;99.90
24450;DHT22;13349;50.984;5.822;2023-07-20T05:56:19;16.20;99.90
24450;DHT22;13349;50.984;5.822;2023-07-20T05:58:46;16.20;99.90
24450;DHT22;13349;50.984;5.822;2023-07-20T06:01:13;16.30;99.90
24450;DHT22;13349;50.984;5.822;2023-07-20T06:03:40;16.40;99.90
24450;DHT22;13349;50.984;5.822;2023-07-20T06:06:07;16.60;99.90
24450;DHT22;13349;50.984;5.822;2023-07-20T06:08:36;16.80;99.90
24450;DHT22;13349;50.984;5.822;2023-07-20T06:11:03;16.90;99.90
24450;DHT22;13349;50.984;5.822;2023-07-20T06:13:30;17.00;99.90
24450;DHT22;13349;50.984;5.822;2023-07-20T06:15:57;17.20;99.90
24450;DHT22;13349;50.984;5.822;2023-07-20T06:18:24;17.30;99.90
24450;DHT22;13349;50.984;5.822;2023-07-20T06:20:51;17.30;99.90
24450;DHT22;13349;50.984;5.822;2023-07-20T06:23:18;17.40;99.90
24450;DHT22;13349;50.984;5.822;2023-07-20T06:25:47;17.60;99.90
24450;DHT22;13349;50.984;5.822;2023-07-20T06:28:14;17.90;99.90
24450;DHT22;13349;50.984;5.822;2023-07-20T06:30:41;18.10;99.90
24450;DHT22;13349;50.984;5.822;2023-07-20T06:33:08;18.60;99.90
24450;DHT22;13349;50.984;5.822;2023-07-20T06:35:34;18.70;99.90
24450;DHT22;13349;50.984;5.822;2023-07-20T06:38:04;18.90;99.90
24450;DHT22;13349;50.984;5.822;2023-07-20T06:40:31;19.20;99.90
24450;DHT22;13349;50.984;5.822;2023-07-20T06:43:00;19.40;1.00
24450;DHT22;13349;50.984;5.822;2023-07-20T06:45:26;19.70;99.90
24450;DHT22;13349;50.984;5.822;2023-07-20T06:47:53;19.90;61.40
24450;DHT22;13349;50.984;5.822;2023-07-20T06:50:20;19.70;99.90
24450;DHT22;13349;50.984;5.822;2023-07-20T06:52:47;19.50;1.00
24450;DHT22;13349;50.984;5.822;2023-07-20T06:55:14;19.30;1.00
24450;DHT22;13349;50.984;5.822;2023-07-20T06:57:41;19.40;99.90
24450;DHT22;13349;50.984;5.822;2023-07-20T07:00:11;19.50;99.90
24450;DHT22;13349;50.984;5.822;2023-07-20T07:02:39;19.10;1.00
24450;DHT22;13349;50.984;5.822;2023-07-20T07:05:06;19.10;1.00
24450;DHT22;13349;50.984;5.822;2023-07-20T07:07:33;19.50;1.00
24450;DHT22;13349;50.984;5.822;2023-07-20T07:10:00;19.90;1.00
24450;DHT22;13349;50.984;5.822;2023-07-20T07:12:30;20.00;99.90
24450;DHT22;13349;50.984;5.822;2023-07-20T07:14:57;19.90;1.00
24450;DHT22;13349;50.984;5.822;2023-07-20T07:17:26;19.60;1.00
24450;DHT22;13349;50.984;5.822;2023-07-20T07:19:54;19.70;1.00
24450;DHT22;13349;50.984;5.822;2023-07-20T07:22:22;19.90;1.00
24450;DHT22;13349;50.984;5.822;2023-07-20T07:24:49;20.00;1.00
24450;DHT22;13349;50.984;5.822;2023-07-20T07:27:16;20.10;1.00
24450;DHT22;13349;50.984;5.822;2023-07-20T07:29:43;19.90;1.00
24450;DHT22;13349;50.984;5.822;2023-07-20T07:32:10;19.60;1.00
24450;DHT22;13349;50.984;5.822;2023-07-20T07:34:39;19.20;1.00
24450;DHT22;13349;50.984;5.822;2023-07-20T07:37:06;19.10;1.00
24450;DHT22;13349;50.984;5.822;2023-07-20T07:39:33;19.00;1.00
24450;DHT22;13349;50.984;5.822;2023-07-20T07:42:00;19.30;1.00
24450;DHT22;13349;50.984;5.822;2023-07-20T07:44:27;19.50;1.00
24450;DHT22;13349;50.984;5.822;2023-07-20T07:46:54;19.40;1.00
24450;DHT22;13349;50.984;5.822;2023-07-20T07:49:21;19.60;1.00
24450;DHT22;13349;50.984;5.822;2023-07-20T07:51:49;19.80;1.00
24450;DHT22;13349;50.984;5.822;2023-07-20T07:54:17;20.00;1.00
24450;DHT22;13349;50.984;5.822;2023-07-20T07:56:44;19.80;1.00
24450;DHT22;13349;50.984;5.822;2023-07-20T07:59:11;19.90;1.00
24450;DHT22;13349;50.984;5.822;2023-07-20T08:01:38;20.00;99.90
24450;DHT22;13349;50.984;5.822;2023-07-20T08:04:05;19.80;99.90
24450;DHT22;13349;50.984;5.822;2023-07-20T08:06:32;19.90;99.90
24450;DHT22;13349;50.984;5.822;2023-07-20T08:09:01;19.70;99.90
24450;DHT22;13349;50.984;5.822;2023-07-20T08:11:28;19.60;99.90
24450;DHT22;13349;50.984;5.822;2023-07-20T08:13:59;19.50;99.90
24450;DHT22;13349;50.984;5.822;2023-07-20T08:16:26;19.50;99.90
24450;DHT22;13349;50.984;5.822;2023-07-20T08:18:53;19.70;99.90
24450;DHT22;13349;50.984;5.822;2023-07-20T08:21:20;19.90;99.90
24450;DHT22;13349;50.984;5.822;2023-07-20T08:23:47;19.80;99.90
24450;DHT22;13349;50.984;5.822;2023-07-20T08:26:16;20.20;40.40
24450;DHT22;13349;50.984;5.822;2023-07-20T08:28:44;20.30;1.00
24450;DHT22;13349;50.984;5.822;2023-07-20T08:31:11;20.20;1.00
24450;DHT22;13349;50.984;5.822;2023-07-20T08:33:38;20.20;1.00
24450;DHT22;13349;50.984;5.822;2023-07-20T08:36:05;20.30;1.00
24450;DHT22;13349;50.984;5.822;2023-07-20T08:38:32;19.90;1.00
24450;DHT22;13349;50.984;5.822;2023-07-20T08:40:59;19.80;1.00
24450;DHT22;13349;50.984;5.822;2023-07-20T08:43:28;20.00;13.60
24450;DHT22;13349;50.984;5.822;2023-07-20T08:45:56;20.10;1.00
24450;DHT22;13349;50.984;5.822;2023-07-20T08:48:24;20.20;1.00
24450;DHT22;13349;50.984;5.822;2023-07-20T08:50:51;20.20;1.00
24450;DHT22;13349;50.984;5.822;2023-07-20T08:53:19;20.40;1.00
24450;DHT22;13349;50.984;5.822;2023-07-20T08:55:46;20.70;1.00
24450;DHT22;13349;50.984;5.822;2023-07-20T08:58:15;21.20;1.00
24450;DHT22;13349;50.984;5.822;2023-07-20T09:00:43;21.40;1.00
24450;DHT22;13349;50.984;5.822;2023-07-20T09:03:11;21.70;1.00
24450;DHT22;13349;50.984;5.822;2023-07-20T09:05:38;22.00;99.90
24450;DHT22;13349;50.984;5.822;2023-07-20T09:08:06;21.40;99.90
24450;DHT22;13349;50.984;5.822;2023-07-20T09:10:33;21.20;99.90
24450;DHT22;13349;50.984;5.822;2023-07-20T09:13:00;21.30;99.90
24450;DHT22;13349;50.984;5.822;2023-07-20T09:15:28;21.10;99.90
24450;DHT22;13349;50.984;5.822;2023-07-20T09:17:58;20.90;99.90
24450;DHT22;13349;50.984;5.822;2023-07-20T09:20:27;21.10;99.90
24450;DHT22;13349;50.984;5.822;2023-07-20T09:22:57;21.50;99.90
24450;DHT22;13349;50.984;5.822;2023-07-20T09:25:24;21.40;99.90
24450;DHT22;13349;50.984;5.822;2023-07-20T09:27:51;21.20;99.90
24450;DHT22;13349;50.984;5.822;2023-07-20T09:30:19;21.70;99.90
24450;DHT22;13349;50.984;5.822;2023-07-20T09:32:51;22.20;96.60
24450;DHT22;13349;50.984;5.822;2023-07-20T09:35:20;23.40;37.50
24450;DHT22;13349;50.984;5.822;2023-07-20T09:37:49;23.50;1.00
24450;DHT22;13349;50.984;5.822;2023-07-20T09:40:17;23.70;1.00
24450;DHT22;13349;50.984;5.822;2023-07-20T09:42:45;23.80;1.00
24450;DHT22;13349;50.984;5.822;2023-07-20T09:45:12;24.00;1.00
24450;DHT22;13349;50.984;5.822;2023-07-20T09:47:39;23.60;1.00
24450;DHT22;13349;50.984;5.822;2023-07-20T09:50:07;22.90;1.00
24450;DHT22;13349;50.984;5.822;2023-07-20T09:52:38;22.70;1.00
24450;DHT22;13349;50.984;5.822;2023-07-20T09:55:07;23.60;1.00
24450;DHT22;13349;50.984;5.822;2023-07-20T09:57:35;24.30;1.00
24450;DHT22;13349;50.984;5.822;2023-07-20T10:00:03;23.40;1.00
24450;DHT22;13349;50.984;5.822;2023-07-20T10:02:33;22.60;1.00
24450;DHT22;13349;50.984;5.822;2023-07-20T10:05:03;22.10;1.00
24450;DHT22;13349;50.984;5.822;2023-07-20T10:07:30;22.30;1.00
24450;DHT22;13349;50.984;5.822;2023-07-20T10:09:59;23.50;1.00
24450;DHT22;13349;50.984;5.822;2023-07-20T10:12:28;23.70;1.00
24450;DHT22;13349;50.984;5.822;2023-07-20T10:14:59;24.30;1.00
24450;DHT22;13349;50.984;5.822;2023-07-20T10:17:30;23.30;1.00
24450;DHT22;13349;50.984;5.822;2023-07-20T10:19:57;23.30;1.00
24450;DHT22;13349;50.984;5.822;2023-07-20T10:22:27;23.00;1.00
24450;DHT22;13349;50.984;5.822;2023-07-20T10:24:56;22.40;1.00
24450;DHT22;13349;50.984;5.822;2023-07-20T10:27:26;22.30;1.00
24450;DHT22;13349;50.984;5.822;2023-07-20T10:29:53;22.40;1.00
24450;DHT22;13349;50.984;5.822;2023-07-20T10:32:20;23.00;1.00
24450;DHT22;13349;50.984;5.822;2023-07-20T10:34:50;23.40;1.00
24450;DHT22;13349;50.984;5.822;2023-07-20T10:39:59;24.00;1.00
24450;DHT22;13349;50.984;5.822;2023-07-20T10:42:48;25.20;1.00
24450;DHT22;13349;50.984;5.822;2023-07-20T10:45:16;26.00;1.00
24450;DHT22;13349;50.984;5.822;2023-07-20T10:47:45;26.40;1.00
24450;DHT22;13349;50.984;5.822;2023-07-20T10:50:12;26.00;1.00
24450;DHT22;13349;50.984;5.822;2023-07-20T10:52:39;26.30;1.00
24450;DHT22;13349;50.984;5.822;2023-07-20T10:55:14;26.50;1.00
24450;DHT22;13349;50.984;5.822;2023-07-20T10:57:41;26.00;1.00
24450;DHT22;13349;50.984;5.822;2023-07-20T11:00:10;25.60;1.00
24450;DHT22;13349;50.984;5.822;2023-07-20T11:02:45;25.70;1.00
24450;DHT22;13349;50.984;5.822;2023-07-20T11:07:58;24.90;1.00
24450;DHT22;13349;50.984;5.822;2023-07-20T11:10:25;25.40;1.00
24450;DHT22;13349;50.984;5.822;2023-07-20T11:15:47;25.10;1.00
24450;DHT22;13349;50.984;5.822;2023-07-20T11:18:14;24.40;1.00
24450;DHT22;13349;50.984;5.822;2023-07-20T11:20:42;24.00;1.00
24450;DHT22;13349;50.984;5.822;2023-07-20T11:23:09;23.60;1.00
24450;DHT22;13349;50.984;5.822;2023-07-20T11:25:37;23.30;1.00
24450;DHT22;13349;50.984;5.822;2023-07-20T11:28:06;24.10;1.00
24450;DHT22;13349;50.984;5.822;2023-07-20T11:30:34;24.40;1.00
24450;DHT22;13349;50.984;5.822;2023-07-20T11:33:02;25.50;1.00
24450;DHT22;13349;50.984;5.822;2023-07-20T11:35:29;26.10;1.00
24450;DHT22;13349;50.984;5.822;2023-07-20T11:37:56;25.70;1.00
24450;DHT22;13349;50.984;5.822;2023-07-20T11:40:23;25.90;1.00
24450;DHT22;13349;50.984;5.822;2023-07-20T11:42:50;26.70;1.00
24450;DHT22;13349;50.984;5.822;2023-07-20T11:45:18;26.30;1.00
24450;DHT22;13349;50.984;5.822;2023-07-20T11:47:46;26.20;1.00
24450;DHT22;13349;50.984;5.822;2023-07-20T11:50:14;26.60;1.00
24450;DHT22;13349;50.984;5.822;2023-07-20T11:52:42;27.00;1.00
24450;DHT22;13349;50.984;5.822;2023-07-20T11:55:09;27.50;1.00
24450;DHT22;13349;50.984;5.822;2023-07-20T11:57:36;26.50;1.00
24450;DHT22;13349;50.984;5.822;2023-07-20T12:00:04;26.90;1.00
24450;DHT22;13349;50.984;5.822;2023-07-20T12:02:36;25.90;1.00
24450;DHT22;13349;50.984;5.822;2023-07-20T12:05:04;25.50;1.00
24450;DHT22;13349;50.984;5.822;2023-07-20T12:07:36;25.00;1.00
24450;DHT22;13349;50.984;5.822;2023-07-20T12:10:06;25.40;1.00
24450;DHT22;13349;50.984;5.822;2023-07-20T12:12:33;25.80;1.00
24450;DHT22;13349;50.984;5.822;2023-07-20T12:15:12;25.40;1.00
24450;DHT22;13349;50.984;5.822;2023-07-20T12:17:41;25.80;1.00
24450;DHT22;13349;50.984;5.822;2023-07-20T12:20:09;25.70;1.00
24450;DHT22;13349;50.984;5.822;2023-07-20T12:22:39;25.60;1.00
24450;DHT22;13349;50.984;5.822;2023-07-20T12:25:07;25.60;1.00
24450;DHT22;13349;50.984;5.822;2023-07-20T12:27:35;25.60;1.00
24450;DHT22;13349;50.984;5.822;2023-07-20T12:30:03;25.30;1.00
24450;DHT22;13349;50.984;5.822;2023-07-20T12:32:30;25.20;1.00
24450;DHT22;13349;50.984;5.822;2023-07-20T12:34:57;24.90;1.00
24450;DHT22;13349;50.984;5.822;2023-07-20T12:37:25;25.00;1.00
24450;DHT22;13349;50.984;5.822;2023-07-20T12:39:54;25.30;1.00
24450;DHT22;13349;50.984;5.822;2023-07-20T12:42:21;25.70;1.00
24450;DHT22;13349;50.984;5.822;2023-07-20T12:44:48;25.60;1.00
24450;DHT22;13349;50.984;5.822;2023-07-20T12:47:15;24.60;1.00
24450;DHT22;13349;50.984;5.822;2023-07-20T12:49:42;24.60;1.00
24450;DHT22;13349;50.984;5.822;2023-07-20T12:52:10;25.50;1.00
24450;DHT22;13349;50.984;5.822;2023-07-20T12:54:38;26.00;1.00
24450;DHT22;13349;50.984;5.822;2023-07-20T12:57:06;26.00;1.00
24450;DHT22;13349;50.984;5.822;2023-07-20T12:59:33;26.20;1.00
24450;DHT22;13349;50.984;5.822;2023-07-20T13:02:01;26.10;1.00
24450;DHT22;13349;50.984;5.822;2023-07-20T13:04:28;26.30;1.00
24450;DHT22;13349;50.984;5.822;2023-07-20T13:06:55;26.10;1.00
24450;DHT22;13349;50.984;5.822;2023-07-20T13:09:23;25.20;1.00
24450;DHT22;13349;50.984;5.822;2023-07-20T13:11:51;25.00;1.00
24450;DHT22;13349;50.984;5.822;2023-07-20T13:14:19;25.60;1.00
24450;DHT22;13349;50.984;5.822;2023-07-20T13:16:46;25.80;1.00
24450;DHT22;13349;50.984;5.822;2023-07-20T13:19:13;26.40;1.00
24450;DHT22;13349;50.984;5.822;2023-07-20T13:21:40;26.60;1.00
24450;DHT22;13349;50.984;5.822;2023-07-20T13:24:08;25.80;1.00
24450;DHT22;13349;50.984;5.822;2023-07-20T13:26:35;25.70;1.00
24450;DHT22;13349;50.984;5.822;2023-07-20T13:29:02;26.90;1.00
24450;DHT22;13349;50.984;5.822;2023-07-20T13:31:30;27.20;1.00
24450;DHT22;13349;50.984;5.822;2023-07-20T13:33:58;27.70;1.00
24450;DHT22;13349;50.984;5.822;2023-07-20T13:36:25;26.80;1.00
24450;DHT22;13349;50.984;5.822;2023-07-20T13:38:52;26.50;1.00
24450;DHT22;13349;50.984;5.822;2023-07-20T13:41:19;26.30;1.00
24450;DHT22;13349;50.984;5.822;2023-07-20T13:43:46;26.20;1.00
24450;DHT22;13349;50.984;5.822;2023-07-20T13:46:13;26.00;1.00
24450;DHT22;13349;50.984;5.822;2023-07-20T13:48:41;25.90;1.00
24450;DHT22;13349;50.984;5.822;2023-07-20T13:51:08;25.60;1.00
24450;DHT22;13349;50.984;5.822;2023-07-20T13:53:35;25.20;1.00
24450;DHT22;13349;50.984;5.822;2023-07-20T13:56:02;25.00;1.00
24450;DHT22;13349;50.984;5.822;2023-07-20T13:58:30;25.00;1.00
24450;DHT22;13349;50.984;5.822;2023-07-20T14:00:57;24.90;1.00
24450;DHT22;13349;50.984;5.822;2023-07-20T14:03:24;25.00;1.00
24450;DHT22;13349;50.984;5.822;2023-07-20T14:05:52;25.60;1.00
24450;DHT22;13349;50.984;5.822;2023-07-20T14:08:19;25.60;1.00
24450;DHT22;13349;50.984;5.822;2023-07-20T14:10:46;25.70;1.00
24450;DHT22;13349;50.984;5.822;2023-07-20T14:13:13;26.20;1.00
24450;DHT22;13349;50.984;5.822;2023-07-20T14:15:40;26.00;1.00
24450;DHT22;13349;50.984;5.822;2023-07-20T14:18:07;26.00;1.00
24450;DHT22;13349;50.984;5.822;2023-07-20T14:20:34;26.00;1.00
24450;DHT22;13349;50.984;5.822;2023-07-20T14:23:03;25.70;1.00
24450;DHT22;13349;50.984;5.822;2023-07-20T14:25:30;25.50;1.00
24450;DHT22;13349;50.984;5.822;2023-07-20T14:27:58;25.40;1.00
24450;DHT22;13349;50.984;5.822;2023-07-20T14:30:25;25.60;1.00
24450;DHT22;13349;50.984;5.822;2023-07-20T14:32:52;25.90;1.00
24450;DHT22;13349;50.984;5.822;2023-07-20T14:35:19;27.00;1.00
24450;DHT22;13349;50.984;5.822;2023-07-20T14:37:47;27.70;1.00
24450;DHT22;13349;50.984;5.822;2023-07-20T14:40:17;27.60;1.00
24450;DHT22;13349;50.984;5.822;2023-07-20T14:42:44;28.10;1.00
24450;DHT22;13349;50.984;5.822;2023-07-20T14:45:11;28.60;1.00
24450;DHT22;13349;50.984;5.822;2023-07-20T14:47:42;28.30;1.00
24450;DHT22;13349;50.984;5.822;2023-07-20T14:50:09;28.60;1.00
24450;DHT22;13349;50.984;5.822;2023-07-20T14:52:36;28.80;1.00
24450;DHT22;13349;50.984;5.822;2023-07-20T14:55:03;28.30;1.00
24450;DHT22;13349;50.984;5.822;2023-07-20T14:57:32;27.80;1.00
24450;DHT22;13349;50.984;5.822;2023-07-20T14:59:59;27.40;1.00
24450;DHT22;13349;50.984;5.822;2023-07-20T15:02:25;27.40;1.00
24450;DHT22;13349;50.984;5.822;2023-07-20T15:04:52;27.10;1.00
24450;DHT22;13349;50.984;5.822;2023-07-20T15:07:21;27.00;1.00
24450;DHT22;13349;50.984;5.822;2023-07-20T15:09:48;26.90;1.00
24450;DHT22;13349;50.984;5.822;2023-07-20T15:12:15;26.70;1.00
24450;DHT22;13349;50.984;5.822;2023-07-20T15:14:43;26.50;1.00
24450;DHT22;13349;50.984;5.822;2023-07-20T15:17:10;26.30;1.00
24450;DHT22;13349;50.984;5.822;2023-07-20T15:19:37;26.10;1.00
24450;DHT22;13349;50.984;5.822;2023-07-20T15:22:05;25.80;1.00
24450;DHT22;13349;50.984;5.822;2023-07-20T15:24:34;26.00;1.00
24450;DHT22;13349;50.984;5.822;2023-07-20T15:27:01;25.80;1.00
24450;DHT22;13349;50.984;5.822;2023-07-20T15:29:29;26.30;1.00
24450;DHT22;13349;50.984;5.822;2023-07-20T15:31:57;26.60;1.00
24450;DHT22;13349;50.984;5.822;2023-07-20T15:34:24;26.60;1.00
24450;DHT22;13349;50.984;5.822;2023-07-20T15:36:51;26.60;1.00
24450;DHT22;13349;50.984;5.822;2023-07-20T15:39:18;26.20;1.00
24450;DHT22;13349;50.984;5.822;2023-07-20T15:41:47;25.80;1.00
24450;DHT22;13349;50.984;5.822;2023-07-20T15:44:14;25.20;1.00
24450;DHT22;13349;50.984;5.822;2023-07-20T15:46:45;25.50;1.00
24450;DHT22;13349;50.984;5.822;2023-07-20T15:49:14;25.30;1.00